sensor_id;sensor_type;location;lat;lon;timestamp;P1;durP1;ratioP1;P2;durP2;ratioP2
34433;SDS011;34290;48.562;13.384;2023-07-22T00:01:23;6.40;;;2.22;;
34433;SDS011;34290;48.562;13.384;2023-07-22T00:03:50;7.22;;;2.15;;
34433;SDS011;34290;48.562;13.384;2023-07-22T00:06:17;6.72;;;2.15;;
34433;SDS011;34290;48.562;13.384;2023-07-22T00:08:45;4.68;;;2.08;;
34433;SDS011;34290;48.562;13.384;2023-07-22T00:11:12;6.35;;;2.20;;
34433;SDS011;34290;48.562;13.384;2023-07-22T00:13:39;4.05;;;2.22;;
34433;SDS011;34290;48.562;13.384;2023-07-22T00:16:08;3.28;;;2.03;;
34433;SDS011;34290;48.562;13.384;2023-07-22T00:18:36;3.20;;;2.00;;
34433;SDS011;34290;48.562;13.384;2023-07-22T00:21:03;6.38;;;2.30;;
34433;SDS011;34290;48.562;13.384;2023-07-22T00:23:31;5.07;;;2.20;;
34433;SDS011;34290;48.562;13.384;2023-07-22T00:26:00;4.13;;;2.22;;
34433;SDS011;34290;48.562;13.384;2023-07-22T00:28:28;7.78;;;2.20;;
34433;SDS011;34290;48.562;13.384;2023-07-22T00:30:54;4.28;;;2.25;;
34433;SDS011;34290;48.562;13.384;2023-07-22T00:33:22;4.03;;;2.30;;
34433;SDS011;34290;48.562;13.384;2023-07-22T00:35:49;5.68;;;3.38;;
34433;SDS011;34290;48.562;13.384;2023-07-22T00:38:16;4.55;;;2.33;;
34433;SDS011;34290;48.562;13.384;2023-07-22T00:40:44;3.47;;;2.00;;
34433;SDS011;34290;48.562;13.384;2023-07-22T00:43:12;3.00;;;1.92;;
34433;SDS011;34290;48.562;13.384;2023-07-22T00:45:39;4.78;;;2.13;;
34433;SDS011;34290;48.562;13.384;2023-07-22T00:48:06;5.30;;;2.20;;
34433;SDS011;34290;48.562;13.384;2023-07-22T00:50:34;5.60;;;2.50;;
34433;SDS011;34290;48.562;13.384;2023-07-22T00:53:02;5.05;;;2.47;;
34433;SDS011;34290;48.562;13.384;2023-07-22T00:55:29;6.75;;;2.35;;
34433;SDS011;34290;48.562;13.384;2023-07-22T00:58:00;4.10;;;2.30;;
34433;SDS011;34290;48.562;13.384;2023-07-22T01:00:29;4.50;;;2.20;;
34433;SDS011;34290;48.562;13.384;2023-07-22T01:02:56;3.78;;;2.25;;
34433;SDS011;34290;48.562;13.384;2023-07-22T01:05:24;5.03;;;2.47;;
34433;SDS011;34290;48.562;13.384;2023-07-22T01:07:52;4.10;;;2.20;;
34433;SDS011;34290;48.562;13.384;2023-07-22T01:10:21;3.72;;;2.20;;
34433;SDS011;34290;48.562;13.384;2023-07-22T01:12:48;3.80;;;2.22;;
34433;SDS011;34290;48.562;13.384;2023-07-22T01:15:15;3.58;;;2.40;;
34433;SDS011;34290;48.562;13.384;2023-07-22T01:17:44;2.80;;;1.95;;
34433;SDS011;34290;48.562;13.384;2023-07-22T01:20:11;3.78;;;2.15;;
34433;SDS011;34290;48.562;13.384;2023-07-22T01:22:40;6.00;;;2.10;;
34433;SDS011;34290;48.562;13.384;2023-07-22T01:25:10;4.65;;;2.50;;
34433;SDS011;34290;48.562;13.384;2023-07-22T01:27:37;3.53;;;2.50;;
34433;SDS011;34290;48.562;13.384;2023-07-22T01:30:05;6.40;;;2.42;;
34433;SDS011;34290;48.562;13.384;2023-07-22T01:32:34;4.38;;;2.30;;
34433;SDS011;34290;48.562;13.384;2023-07-22T01:35:01;4.80;;;2.20;;
34433;SDS011;34290;48.562;13.384;2023-07-22T01:37:29;4.18;;;2.35;;
34433;SDS011;34290;48.562;13.384;2023-07-22T01:39:56;4.53;;;2.65;;
34433;SDS011;34290;48.562;13.384;2023-07-22T01:42:25;4.18;;;2.60;;
34433;SDS011;34290;48.562;13.384;2023-07-22T01:44:52;7.38;;;2.70;;
34433;SDS011;34290;48.562;13.384;2023-07-22T01:47:19;4.90;;;2.60;;
34433;SDS011;34290;48.562;13.384;2023-07-22T01:49:46;5.50;;;2.47;;
34433;SDS011;34290;48.562;13.384;2023-07-22T01:52:14;6.20;;;3.05;;
34433;SDS011;34290;48.562;13.384;2023-07-22T01:54:41;4.15;;;2.47;;
34433;SDS011;34290;48.562;13.384;2023-07-22T01:57:08;6.78;;;2.80;;
34433;SDS011;34290;48.562;13.384;2023-07-22T01:59:36;4.65;;;2.72;;
34433;SDS011;34290;48.562;13.384;2023-07-22T02:02:03;5.68;;;2.60;;
34433;SDS011;34290;48.562;13.384;2023-07-22T02:04:31;4.20;;;2.50;;
34433;SDS011;34290;48.562;13.384;2023-07-22T02:06:58;7.80;;;2.60;;
34433;SDS011;34290;48.562;13.384;2023-07-22T02:09:25;5.53;;;2.70;;
34433;SDS011;34290;48.562;13.384;2023-07-22T02:11:52;9.27;;;3.03;;
34433;SDS011;34290;48.562;13.384;2023-07-22T02:14:19;6.45;;;2.75;;
34433;SDS011;34290;48.562;13.384;2023-07-22T02:16:48;8.07;;;3.08;;
34433;SDS011;34290;48.562;13.384;2023-07-22T02:19:15;4.57;;;2.50;;
34433;SDS011;34290;48.562;13.384;2023-07-22T02:21:42;6.88;;;2.60;;
34433;SDS011;34290;48.562;13.384;2023-07-22T02:24:09;6.97;;;3.13;;
34433;SDS011;34290;48.562;13.384;2023-07-22T02:26:36;7.50;;;2.78;;
34433;SDS011;34290;48.562;13.384;2023-07-22T02:29:03;5.82;;;2.40;;
34433;SDS011;34290;48.562;13.384;2023-07-22T02:31:30;6.28;;;3.10;;
34433;SDS011;34290;48.562;13.384;2023-07-22T02:33:58;3.10;;;2.25;;
34433;SDS011;34290;48.562;13.384;2023-07-22T02:36:25;6.63;;;2.80;;
34433;SDS011;34290;48.562;13.384;2023-07-22T02:38:52;5.90;;;2.60;;
34433;SDS011;34290;48.562;13.384;2023-07-22T02:41:19;5.65;;;2.80;;
34433;SDS011;34290;48.562;13.384;2023-07-22T02:43:46;4.78;;;2.40;;
34433;SDS011;34290;48.562;13.384;2023-07-22T02:46:13;6.07;;;2.67;;
34433;SDS011;34290;48.562;13.384;2023-07-22T02:48:41;7.22;;;2.78;;
34433;SDS011;34290;48.562;13.384;2023-07-22T02:51:09;4.47;;;2.65;;
34433;SDS011;34290;48.562;13.384;2023-07-22T02:53:37;4.72;;;2.80;;
34433;SDS011;34290;48.562;13.384;2023-07-22T02:56:04;8.82;;;2.50;;
34433;SDS011;34290;48.562;13.384;2023-07-22T02:58:32;5.25;;;2.45;;
34433;SDS011;34290;48.562;13.384;2023-07-22T03:00:59;4.63;;;2.90;;
34433;SDS011;34290;48.562;13.384;2023-07-22T03:03:26;8.00;;;2.80;;
34433;SDS011;34290;48.562;13.384;2023-07-22T03:05:53;4.45;;;2.72;;
34433;SDS011;34290;48.562;13.384;2023-07-22T03:08:24;4.32;;;2.42;;
34433;SDS011;34290;48.562;13.384;2023-07-22T03:10:51;8.45;;;2.85;;
34433;SDS011;34290;48.562;13.384;2023-07-22T03:13:18;5.30;;;2.70;;
34433;SDS011;34290;48.562;13.384;2023-07-22T03:15:45;3.92;;;2.70;;
34433;SDS011;34290;48.562;13.384;2023-07-22T03:18:12;5.07;;;2.60;;
34433;SDS011;34290;48.562;13.384;2023-07-22T03:20:39;7.00;;;2.72;;
34433;SDS011;34290;48.562;13.384;2023-07-22T03:23:06;3.40;;;2.40;;
34433;SDS011;34290;48.562;13.384;2023-07-22T03:25:35;5.18;;;2.60;;
34433;SDS011;34290;48.562;13.384;2023-07-22T03:28:02;4.72;;;2.78;;
34433;SDS011;34290;48.562;13.384;2023-07-22T03:30:30;5.38;;;2.58;;
34433;SDS011;34290;48.562;13.384;2023-07-22T03:32:58;5.50;;;2.90;;
34433;SDS011;34290;48.562;13.384;2023-07-22T03:35:25;5.93;;;2.72;;
34433;SDS011;34290;48.562;13.384;2023-07-22T03:37:53;6.32;;;2.80;;
34433;SDS011;34290;48.562;13.384;2023-07-22T03:40:20;5.47;;;2.70;;
34433;SDS011;34290;48.562;13.384;2023-07-22T03:42:53;4.35;;;2.72;;
34433;SDS011;34290;48.562;13.384;2023-07-22T03:45:21;3.63;;;2.78;;
34433;SDS011;34290;48.562;13.384;2023-07-22T03:47:50;7.80;;;2.80;;
34433;SDS011;34290;48.562;13.384;2023-07-22T03:50:19;7.45;;;2.83;;
34433;SDS011;34290;48.562;13.384;2023-07-22T03:52:46;4.47;;;2.70;;
34433;SDS011;34290;48.562;13.384;2023-07-22T03:55:13;4.18;;;2.70;;
34433;SDS011;34290;48.562;13.384;2023-07-22T03:57:40;4.35;;;2.55;;
34433;SDS011;34290;48.562;13.384;2023-07-22T04:00:09;5.00;;;2.67;;
34433;SDS011;34290;48.562;13.384;2023-07-22T04:02:36;5.20;;;3.00;;
34433;SDS011;34290;48.562;13.384;2023-07-22T04:05:03;6.72;;;3.10;;
34433;SDS011;34290;48.562;13.384;2023-07-22T04:07:31;5.45;;;3.13;;
34433;SDS011;34290;48.562;13.384;2023-07-22T04:09:58;5.00;;;2.88;;
34433;SDS011;34290;48.562;13.384;2023-07-22T04:12:25;4.72;;;2.75;;
34433;SDS011;34290;48.562;13.384;2023-07-22T04:14:52;6.10;;;2.72;;
34433;SDS011;34290;48.562;13.384;2023-07-22T04:17:20;3.80;;;2.22;;
34433;SDS011;34290;48.562;13.384;2023-07-22T04:19:47;5.82;;;2.85;;
34433;SDS011;34290;48.562;13.384;2023-07-22T04:22:16;4.40;;;2.67;;
34433;SDS011;34290;48.562;13.384;2023-07-22T04:24:43;6.07;;;2.55;;
34433;SDS011;34290;48.562;13.384;2023-07-22T04:27:13;7.13;;;2.38;;
34433;SDS011;34290;48.562;13.384;2023-07-22T04:29:40;5.15;;;2.60;;
34433;SDS011;34290;48.562;13.384;2023-07-22T04:32:08;6.03;;;2.20;;
34433;SDS011;34290;48.562;13.384;2023-07-22T04:34:36;9.68;;;2.47;;
34433;SDS011;34290;48.562;13.384;2023-07-22T04:37:04;3.20;;;2.20;;
34433;SDS011;34290;48.562;13.384;2023-07-22T04:39:31;5.47;;;2.55;;
34433;SDS011;34290;48.562;13.384;2023-07-22T04:41:59;3.30;;;2.40;;
34433;SDS011;34290;48.562;13.384;2023-07-22T04:44:26;5.88;;;2.30;;
34433;SDS011;34290;48.562;13.384;2023-07-22T04:46:53;5.10;;;2.58;;
34433;SDS011;34290;48.562;13.384;2023-07-22T04:49:20;5.80;;;2.30;;
34433;SDS011;34290;48.562;13.384;2023-07-22T04:51:49;2.85;;;1.92;;
34433;SDS011;34290;48.562;13.384;2023-07-22T04:54:16;9.73;;;2.67;;
34433;SDS011;34290;48.562;13.384;2023-07-22T04:56:43;4.95;;;3.05;;
34433;SDS011;34290;48.562;13.384;2023-07-22T04:59:10;3.35;;;2.17;;
34433;SDS011;34290;48.562;13.384;2023-07-22T05:01:38;3.35;;;2.00;;
34433;SDS011;34290;48.562;13.384;2023-07-22T05:04:05;3.75;;;2.30;;
34433;SDS011;34290;48.562;13.384;2023-07-22T05:06:32;4.22;;;2.30;;
34433;SDS011;34290;48.562;13.384;2023-07-22T05:09:02;4.68;;;2.30;;
34433;SDS011;34290;48.562;13.384;2023-07-22T05:11:29;4.57;;;2.42;;
34433;SDS011;34290;48.562;13.384;2023-07-22T05:13:56;4.82;;;2.80;;
34433;SDS011;34290;48.562;13.384;2023-07-22T05:16:23;4.80;;;2.70;;
34433;SDS011;34290;48.562;13.384;2023-07-22T05:18:50;4.30;;;2.20;;
34433;SDS011;34290;48.562;13.384;2023-07-22T05:21:17;3.15;;;2.13;;
34433;SDS011;34290;48.562;13.384;2023-07-22T05:23:44;4.93;;;2.50;;
34433;SDS011;34290;48.562;13.384;2023-07-22T05:26:12;4.32;;;2.55;;
34433;SDS011;34290;48.562;13.384;2023-07-22T05:28:39;2.83;;;1.95;;
34433;SDS011;34290;48.562;13.384;2023-07-22T05:31:07;2.75;;;1.77;;
34433;SDS011;34290;48.562;13.384;2023-07-22T05:33:34;3.05;;;1.92;;
34433;SDS011;34290;48.562;13.384;2023-07-22T05:36:01;4.28;;;2.05;;
34433;SDS011;34290;48.562;13.384;2023-07-22T05:38:28;4.18;;;2.00;;
34433;SDS011;34290;48.562;13.384;2023-07-22T05:40:56;3.08;;;1.77;;
34433;SDS011;34290;48.562;13.384;2023-07-22T05:43:24;3.60;;;2.03;;
34433;SDS011;34290;48.562;13.384;2023-07-22T05:45:51;4.30;;;1.98;;
34433;SDS011;34290;48.562;13.384;2023-07-22T05:48:18;2.47;;;1.85;;
34433;SDS011;34290;48.562;13.384;2023-07-22T05:50:46;5.80;;;2.13;;
34433;SDS011;34290;48.562;13.384;2023-07-22T05:53:14;4.03;;;2.10;;
34433;SDS011;34290;48.562;13.384;2023-07-22T05:55:41;4.45;;;2.22;;
34433;SDS011;34290;48.562;13.384;2023-07-22T05:58:14;3.30;;;1.90;;
34433;SDS011;34290;48.562;13.384;2023-07-22T06:00:43;4.07;;;2.03;;
34433;SDS011;34290;48.562;13.384;2023-07-22T06:03:11;3.45;;;2.00;;
34433;SDS011;34290;48.562;13.384;2023-07-22T06:05:37;2.80;;;1.98;;
34433;SDS011;34290;48.562;13.384;2023-07-22T06:08:04;5.40;;;1.92;;
34433;SDS011;34290;48.562;13.384;2023-07-22T06:10:31;3.10;;;2.00;;
34433;SDS011;34290;48.562;13.384;2023-07-22T06:12:59;5.10;;;2.00;;
34433;SDS011;34290;48.562;13.384;2023-07-22T06:15:26;5.55;;;2.25;;
34433;SDS011;34290;48.562;13.384;2023-07-22T06:17:55;5.22;;;2.10;;
34433;SDS011;34290;48.562;13.384;2023-07-22T06:20:43;5.55;;;2.13;;
34433;SDS011;34290;48.562;13.384;2023-07-22T06:23:10;3.70;;;2.22;;
34433;SDS011;34290;48.562;13.384;2023-07-22T06:25:37;4.07;;;2.30;;
34433;SDS011;34290;48.562;13.384;2023-07-22T06:28:04;4.97;;;2.53;;
34433;SDS011;34290;48.562;13.384;2023-07-22T06:30:31;4.95;;;2.40;;
34433;SDS011;34290;48.562;13.384;2023-07-22T06:32:59;6.80;;;2.72;;
34433;SDS011;34290;48.562;13.384;2023-07-22T06:35:26;4.15;;;2.38;;
34433;SDS011;34290;48.562;13.384;2023-07-22T06:37:53;4.10;;;2.50;;
34433;SDS011;34290;48.562;13.384;2023-07-22T06:40:20;7.55;;;2.72;;
34433;SDS011;34290;48.562;13.384;2023-07-22T06:42:47;6.57;;;3.13;;
34433;SDS011;34290;48.562;13.384;2023-07-22T06:45:15;6.50;;;2.65;;
34433;SDS011;34290;48.562;13.384;2023-07-22T06:47:42;5.72;;;2.75;;
34433;SDS011;34290;48.562;13.384;2023-07-22T06:50:10;5.30;;;2.75;;
34433;SDS011;34290;48.562;13.384;2023-07-22T06:52:37;3.90;;;2.45;;
34433;SDS011;34290;48.562;13.384;2023-07-22T06:55:05;4.60;;;2.70;;
34433;SDS011;34290;48.562;13.384;2023-07-22T06:57:32;5.15;;;2.95;;
34433;SDS011;34290;48.562;13.384;2023-07-22T06:59:59;4.93;;;2.80;;
34433;SDS011;34290;48.562;13.384;2023-07-22T07:02:26;6.00;;;3.00;;
34433;SDS011;34290;48.562;13.384;2023-07-22T07:04:53;5.07;;;2.65;;
34433;SDS011;34290;48.562;13.384;2023-07-22T07:07:21;4.13;;;2.78;;
34433;SDS011;34290;48.562;13.384;2023-07-22T07:09:48;7.20;;;2.90;;
34433;SDS011;34290;48.562;13.384;2023-07-22T07:12:16;6.22;;;3.33;;
34433;SDS011;34290;48.562;13.384;2023-07-22T07:14:43;7.43;;;2.67;;
34433;SDS011;34290;48.562;13.384;2023-07-22T07:17:09;6.38;;;2.97;;
34433;SDS011;34290;48.562;13.384;2023-07-22T07:19:36;5.38;;;2.50;;
34433;SDS011;34290;48.562;13.384;2023-07-22T07:22:04;4.47;;;2.45;;
34433;SDS011;34290;48.562;13.384;2023-07-22T07:24:33;7.68;;;2.67;;
34433;SDS011;34290;48.562;13.384;2023-07-22T07:26:59;4.45;;;2.58;;
34433;SDS011;34290;48.562;13.384;2023-07-22T07:29:26;9.27;;;2.90;;
34433;SDS011;34290;48.562;13.384;2023-07-22T07:31:53;5.72;;;2.60;;
34433;SDS011;34290;48.562;13.384;2023-07-22T07:34:20;8.10;;;2.92;;
34433;SDS011;34290;48.562;13.384;2023-07-22T07:36:47;3.78;;;2.35;;
34433;SDS011;34290;48.562;13.384;2023-07-22T07:39:14;3.63;;;2.15;;
34433;SDS011;34290;48.562;13.384;2023-07-22T07:41:43;4.25;;;2.30;;
34433;SDS011;34290;48.562;13.384;2023-07-22T07:44:10;4.72;;;2.47;;
34433;SDS011;34290;48.562;13.384;2023-07-22T07:46:37;4.22;;;2.45;;
34433;SDS011;34290;48.562;13.384;2023-07-22T07:49:05;4.35;;;2.47;;
34433;SDS011;34290;48.562;13.384;2023-07-22T07:51:32;4.68;;;2.95;;
34433;SDS011;34290;48.562;13.384;2023-07-22T07:53:59;6.93;;;3.00;;
34433;SDS011;34290;48.562;13.384;2023-07-22T07:56:26;4.38;;;2.90;;
34433;SDS011;34290;48.562;13.384;2023-07-22T07:58:55;4.72;;;2.40;;
34433;SDS011;34290;48.562;13.384;2023-07-22T08:01:22;6.32;;;2.80;;
34433;SDS011;34290;48.562;13.384;2023-07-22T08:03:49;5.75;;;2.33;;
34433;SDS011;34290;48.562;13.384;2023-07-22T08:06:16;6.05;;;2.53;;
34433;SDS011;34290;48.562;13.384;2023-07-22T08:08:43;5.63;;;2.60;;
34433;SDS011;34290;48.562;13.384;2023-07-22T08:11:11;5.20;;;3.13;;
34433;SDS011;34290;48.562;13.384;2023-07-22T08:13:39;6.25;;;2.58;;
34433;SDS011;34290;48.562;13.384;2023-07-22T08:16:09;4.47;;;2.40;;
34433;SDS011;34290;48.562;13.384;2023-07-22T08:18:39;7.95;;;2.92;;
34433;SDS011;34290;48.562;13.384;2023-07-22T08:21:07;3.45;;;2.20;;
34433;SDS011;34290;48.562;13.384;2023-07-22T08:23:34;4.93;;;2.50;;
34433;SDS011;34290;48.562;13.384;2023-07-22T08:26:02;4.50;;;2.60;;
34433;SDS011;34290;48.562;13.384;2023-07-22T08:28:30;4.25;;;2.20;;
34433;SDS011;34290;48.562;13.384;2023-07-22T08:30:57;6.45;;;2.22;;
34433;SDS011;34290;48.562;13.384;2023-07-22T08:33:27;3.30;;;2.00;;
34433;SDS011;34290;48.562;13.384;2023-07-22T08:35:54;3.65;;;1.83;;
34433;SDS011;34290;48.562;13.384;2023-07-22T08:38:21;4.57;;;2.08;;
34433;SDS011;34290;48.562;13.384;2023-07-22T08:40:48;2.47;;;1.67;;
34433;SDS011;34290;48.562;13.384;2023-07-22T08:43:17;2.10;;;1.48;;
34433;SDS011;34290;48.562;13.384;2023-07-22T08:45:45;3.15;;;1.70;;
34433;SDS011;34290;48.562;13.384;2023-07-22T08:48:15;2.97;;;1.77;;
34433;SDS011;34290;48.562;13.384;2023-07-22T08:50:45;2.80;;;1.60;;
34433;SDS011;34290;48.562;13.384;2023-07-22T08:53:16;3.20;;;1.90;;
34433;SDS011;34290;48.562;13.384;2023-07-22T08:55:47;4.40;;;1.65;;
34433;SDS011;34290;48.562;13.384;2023-07-22T08:58:14;3.17;;;1.52;;
34433;SDS011;34290;48.562;13.384;2023-07-22T09:00:42;3.38;;;1.83;;
34433;SDS011;34290;48.562;13.384;2023-07-22T09:03:10;2.67;;;1.80;;
34433;SDS011;34290;48.562;13.384;2023-07-22T09:05:38;3.67;;;1.75;;
34433;SDS011;34290;48.562;13.384;2023-07-22T09:08:07;2.83;;;1.60;;
34433;SDS011;34290;48.562;13.384;2023-07-22T09:10:34;3.15;;;1.70;;
34433;SDS011;34290;48.562;13.384;2023-07-22T09:13:02;6.22;;;1.90;;
34433;SDS011;34290;48.562;13.384;2023-07-22T09:15:29;3.97;;;1.85;;
34433;SDS011;34290;48.562;13.384;2023-07-22T09:18:01;4.45;;;1.90;;
34433;SDS011;34290;48.562;13.384;2023-07-22T09:20:28;2.65;;;1.80;;
34433;SDS011;34290;48.562;13.384;2023-07-22T09:22:55;2.67;;;1.70;;
34433;SDS011;34290;48.562;13.384;2023-07-22T09:25:24;3.10;;;1.70;;
34433;SDS011;34290;48.562;13.384;2023-07-22T09:27:52;2.35;;;1.83;;
34433;SDS011;34290;48.562;13.384;2023-07-22T09:30:24;4.47;;;1.83;;
34433;SDS011;34290;48.562;13.384;2023-07-22T09:32:52;4.10;;;2.33;;
34433;SDS011;34290;48.562;13.384;2023-07-22T09:35:20;3.47;;;1.92;;
34433;SDS011;34290;48.562;13.384;2023-07-22T09:37:47;5.63;;;2.00;;
34433;SDS011;34290;48.562;13.384;2023-07-22T09:40:14;3.15;;;1.75;;
34433;SDS011;34290;48.562;13.384;2023-07-22T09:42:44;4.28;;;2.15;;
34433;SDS011;34290;48.562;13.384;2023-07-22T09:45:11;2.55;;;1.80;;
34433;SDS011;34290;48.562;13.384;2023-07-22T09:47:42;3.38;;;2.03;;
34433;SDS011;34290;48.562;13.384;2023-07-22T09:50:10;4.32;;;2.00;;
34433;SDS011;34290;48.562;13.384;2023-07-22T09:52:45;3.50;;;2.10;;
34433;SDS011;34290;48.562;13.384;2023-07-22T09:55:17;4.10;;;2.00;;
34433;SDS011;34290;48.562;13.384;2023-07-22T09:57:49;3.85;;;1.92;;
34433;SDS011;34290;48.562;13.384;2023-07-22T10:00:18;4.75;;;1.98;;
34433;SDS011;34290;48.562;13.384;2023-07-22T10:02:47;6.35;;;1.80;;
34433;SDS011;34290;48.562;13.384;2023-07-22T10:05:15;3.97;;;2.10;;
34433;SDS011;34290;48.562;13.384;2023-07-22T10:07:45;3.35;;;1.90;;
34433;SDS011;34290;48.562;13.384;2023-07-22T10:10:15;3.65;;;2.15;;
34433;SDS011;34290;48.562;13.384;2023-07-22T10:12:43;3.25;;;1.92;;
34433;SDS011;34290;48.562;13.384;2023-07-22T10:15:12;4.72;;;2.08;;
34433;SDS011;34290;48.562;13.384;2023-07-22T10:17:40;2.75;;;2.03;;
34433;SDS011;34290;48.562;13.384;2023-07-22T10:20:09;3.72;;;2.10;;
34433;SDS011;34290;48.562;13.384;2023-07-22T10:22:40;6.32;;;2.05;;
34433;SDS011;34290;48.562;13.384;2023-07-22T10:25:10;4.75;;;2.10;;
34433;SDS011;34290;48.562;13.384;2023-07-22T10:27:38;2.97;;;2.10;;
34433;SDS011;34290;48.562;13.384;2023-07-22T10:30:06;5.63;;;2.20;;
34433;SDS011;34290;48.562;13.384;2023-07-22T10:32:37;3.35;;;2.00;;
34433;SDS011;34290;48.562;13.384;2023-07-22T10:35:07;4.18;;;2.33;;
34433;SDS011;34290;48.562;13.384;2023-07-22T10:37:36;5.85;;;2.30;;
34433;SDS011;34290;48.562;13.384;2023-07-22T10:40:16;3.03;;;1.75;;
34433;SDS011;34290;48.562;13.384;2023-07-22T10:42:51;3.72;;;1.95;;
34433;SDS011;34290;48.562;13.384;2023-07-22T10:45:26;5.55;;;1.83;;
34433;SDS011;34290;48.562;13.384;2023-07-22T10:48:03;3.42;;;1.88;;
34433;SDS011;34290;48.562;13.384;2023-07-22T10:50:41;4.57;;;2.08;;
34433;SDS011;34290;48.562;13.384;2023-07-22T10:53:11;3.13;;;1.83;;
34433;SDS011;34290;48.562;13.384;2023-07-22T10:58:30;3.85;;;2.00;;
34433;SDS011;34290;48.562;13.384;2023-07-22T11:06:51;3.08;;;2.00;;
34433;SDS011;34290;48.562;13.384;2023-07-22T11:12:11;4.82;;;2.10;;
34433;SDS011;34290;48.562;13.384;2023-07-22T11:14:45;4.28;;;1.50;;
34433;SDS011;34290;48.562;13.384;2023-07-22T11:17:14;2.58;;;1.80;;
34433;SDS011;34290;48.562;13.384;2023-07-22T11:19:42;4.00;;;1.92;;
34433;SDS011;34290;48.562;13.384;2023-07-22T11:22:10;4.68;;;1.92;;
34433;SDS011;34290;48.562;13.384;2023-07-22T11:24:37;3.33;;;1.95;;
34433;SDS011;34290;48.562;13.384;2023-07-22T11:27:04;4.15;;;1.80;;
34433;SDS011;34290;48.562;13.384;2023-07-22T11:29:33;3.25;;;1.88;;
34433;SDS011;34290;48.562;13.384;2023-07-22T11:32:14;3.08;;;1.83;;
34433;SDS011;34290;48.562;13.384;2023-07-22T11:34:44;4.07;;;2.00;;
34433;SDS011;34290;48.562;13.384;2023-07-22T11:37:11;8.70;;;1.85;;
34433;SDS011;34290;48.562;13.384;2023-07-22T11:39:40;2.90;;;1.98;;
34433;SDS011;34290;48.562;13.384;2023-07-22T11:42:09;4.18;;;2.10;;
34433;SDS011;34290;48.562;13.384;2023-07-22T11:44:36;3.55;;;2.00;;
34433;SDS011;34290;48.562;13.384;2023-07-22T11:47:03;3.40;;;1.70;;
34433;SDS011;34290;48.562;13.384;2023-07-22T11:49:33;3.30;;;1.80;;
34433;SDS011;34290;48.562;13.384;2023-07-22T11:52:03;3.50;;;2.28;;
34433;SDS011;34290;48.562;13.384;2023-07-22T11:54:33;4.65;;;2.10;;
34433;SDS011;34290;48.562;13.384;2023-07-22T11:57:13;3.13;;;1.50;;
34433;SDS011;34290;48.562;13.384;2023-07-22T11:59:43;3.00;;;1.70;;
34433;SDS011;34290;48.562;13.384;2023-07-22T12:02:12;3.45;;;1.92;;
34433;SDS011;34290;48.562;13.384;2023-07-22T12:04:39;3.88;;;2.00;;
34433;SDS011;34290;48.562;13.384;2023-07-22T12:07:08;3.83;;;2.00;;
34433;SDS011;34290;48.562;13.384;2023-07-22T12:09:48;3.55;;;1.83;;
34433;SDS011;34290;48.562;13.384;2023-07-22T12:12:15;4.75;;;1.80;;
34433;SDS011;34290;48.562;13.384;2023-07-22T12:14:42;2.58;;;1.80;;
34433;SDS011;34290;48.562;13.384;2023-07-22T12:17:09;3.05;;;1.80;;
34433;SDS011;34290;48.562;13.384;2023-07-22T12:19:36;2.92;;;1.83;;
34433;SDS011;34290;48.562;13.384;2023-07-22T12:22:03;3.13;;;1.83;;
34433;SDS011;34290;48.562;13.384;2023-07-22T12:24:31;4.15;;;2.05;;
34433;SDS011;34290;48.562;13.384;2023-07-22T12:26:59;3.10;;;1.95;;
34433;SDS011;34290;48.562;13.384;2023-07-22T12:29:26;3.10;;;1.90;;
34433;SDS011;34290;48.562;13.384;2023-07-22T12:31:53;3.97;;;2.10;;
34433;SDS011;34290;48.562;13.384;2023-07-22T12:34:20;5.03;;;1.80;;
34433;SDS011;34290;48.562;13.384;2023-07-22T12:36:46;3.88;;;2.00;;
34433;SDS011;34290;48.562;13.384;2023-07-22T12:39:14;4.82;;;1.80;;
34433;SDS011;34290;48.562;13.384;2023-07-22T12:41:42;4.72;;;1.90;;
34433;SDS011;34290;48.562;13.384;2023-07-22T12:44:09;2.83;;;1.73;;
34433;SDS011;34290;48.562;13.384;2023-07-22T12:46:36;2.70;;;1.73;;
34433;SDS011;34290;48.562;13.384;2023-07-22T12:49:03;2.83;;;1.67;;
34433;SDS011;34290;48.562;13.384;2023-07-22T12:51:30;3.75;;;2.20;;
34433;SDS011;34290;48.562;13.384;2023-07-22T12:53:57;3.30;;;1.90;;
34433;SDS011;34290;48.562;13.384;2023-07-22T12:56:24;5.53;;;2.08;;
34433;SDS011;34290;48.562;13.384;2023-07-22T12:58:53;3.50;;;2.10;;
34433;SDS011;34290;48.562;13.384;2023-07-22T13:01:20;3.92;;;1.88;;
34433;SDS011;34290;48.562;13.384;2023-07-22T13:03:46;3.97;;;2.08;;
34433;SDS011;34290;48.562;13.384;2023-07-22T13:06:13;2.88;;;1.75;;
34433;SDS011;34290;48.562;13.384;2023-07-22T13:08:40;2.50;;;1.80;;
34433;SDS011;34290;48.562;13.384;2023-07-22T13:11:07;6.82;;;2.00;;
34433;SDS011;34290;48.562;13.384;2023-07-22T13:13:34;5.05;;;1.90;;
34433;SDS011;34290;48.562;13.384;2023-07-22T13:16:03;5.30;;;2.00;;
34433;SDS011;34290;48.562;13.384;2023-07-22T13:18:30;4.78;;;2.03;;
34433;SDS011;34290;48.562;13.384;2023-07-22T13:20:57;3.13;;;1.80;;
34433;SDS011;34290;48.562;13.384;2023-07-22T13:23:24;4.75;;;1.80;;
34433;SDS011;34290;48.562;13.384;2023-07-22T13:25:51;4.38;;;1.95;;
34433;SDS011;34290;48.562;13.384;2023-07-22T13:28:17;5.30;;;1.83;;
34433;SDS011;34290;48.562;13.384;2023-07-22T13:30:44;4.90;;;1.88;;
34433;SDS011;34290;48.562;13.384;2023-07-22T13:33:13;4.10;;;2.15;;
34433;SDS011;34290;48.562;13.384;2023-07-22T13:35:40;5.72;;;2.00;;
34433;SDS011;34290;48.562;13.384;2023-07-22T13:38:07;4.78;;;2.00;;
34433;SDS011;34290;48.562;13.384;2023-07-22T13:40:34;3.22;;;1.70;;
34433;SDS011;34290;48.562;13.384;2023-07-22T13:43:01;3.92;;;1.63;;
34433;SDS011;34290;48.562;13.384;2023-07-22T13:45:28;3.22;;;1.65;;
34433;SDS011;34290;48.562;13.384;2023-07-22T13:47:55;2.50;;;1.70;;
34433;SDS011;34290;48.562;13.384;2023-07-22T13:50:23;2.78;;;2.05;;
34433;SDS011;34290;48.562;13.384;2023-07-22T13:52:50;4.00;;;1.73;;
34433;SDS011;34290;48.562;13.384;2023-07-22T13:55:17;4.38;;;1.90;;
34433;SDS011;34290;48.562;13.384;2023-07-22T13:57:44;6.85;;;1.92;;
34433;SDS011;34290;48.562;13.384;2023-07-22T14:00:14;4.10;;;1.88;;
34433;SDS011;34290;48.562;13.384;2023-07-22T14:02:41;3.58;;;1.40;;
34433;SDS011;34290;48.562;13.384;2023-07-22T14:05:10;3.22;;;1.85;;
34433;SDS011;34290;48.562;13.384;2023-07-22T14:07:38;4.70;;;1.75;;
34433;SDS011;34290;48.562;13.384;2023-07-22T14:10:06;3.35;;;1.88;;
34433;SDS011;34290;48.562;13.384;2023-07-22T14:12:34;4.32;;;1.67;;
34433;SDS011;34290;48.562;13.384;2023-07-22T14:15:01;3.50;;;1.85;;
34433;SDS011;34290;48.562;13.384;2023-07-22T14:17:29;4.30;;;1.88;;
34433;SDS011;34290;48.562;13.384;2023-07-22T14:19:57;3.00;;;2.08;;
34433;SDS011;34290;48.562;13.384;2023-07-22T14:22:24;4.30;;;1.80;;
34433;SDS011;34290;48.562;13.384;2023-07-22T14:24:52;3.83;;;2.20;;
34433;SDS011;34290;48.562;13.384;2023-07-22T14:27:19;5.03;;;2.10;;
34433;SDS011;34290;48.562;13.384;2023-07-22T14:29:46;4.38;;;2.13;;
34433;SDS011;34290;48.562;13.384;2023-07-22T14:32:13;2.95;;;1.83;;
34433;SDS011;34290;48.562;13.384;2023-07-22T14:34:41;3.70;;;1.92;;
34433;SDS011;34290;48.562;13.384;2023-07-22T14:37:08;3.88;;;1.80;;
34433;SDS011;34290;48.562;13.384;2023-07-22T14:39:35;4.65;;;1.67;;
34433;SDS011;34290;48.562;13.384;2023-07-22T14:42:04;3.72;;;2.15;;
34433;SDS011;34290;48.562;13.384;2023-07-22T14:44:31;3.40;;;1.83;;
34433;SDS011;34290;48.562;13.384;2023-07-22T14:46:58;3.92;;;2.25;;
34433;SDS011;34290;48.562;13.384;2023-07-22T14:49:24;4.65;;;1.60;;